Terminal Aerodrome Forecast
Issued by NWS Austin/San Antonio, TX

Home | Current Version | Previous Version | Text Only | Print | Product List | Glossary On
Versions: 1 2 3 4 5 6 7 8 9 10 11 12 13 14 15 16 17 18 19 20 21
000
FTUS44 KEWX 262346
TAFSAT
TAF
KSAT 262346Z 2700/2806 17008KT P6SM VCSH SCT030 BKN250
     FM270200 14006KT P6SM BKN020
     FM270500 16005KT 5SM BR OVC007
     FM270900 17005KT 1SM BR OVC003
     FM271800 17008KT P6SM OVC007
     FM272000 17008KT P6SM SCT020 BKN050=

USA.gov is the U.S. government's official web portal to all federal, state and local government web resources and services.